Terminal Aerodrome Forecast
Issued by NWS Atlanta, GA

Home | Current Version | Previous Version | Text Only | Print | Product List | Glossary On
Versions: 1 2 3 4 5 6 7 8 9 10 11 12 13 14 15 16 17 18 19 20
000
FTUS42 KFFC 111700
TAFCSG
TAF
KCSG 111728Z 1118/1218 VRB03KT P6SM SCT040
      TEMPO 1118/1121 5SM TSRA BKN030CB
     FM120200 00000KT P6SM SCT250
     FM121000 00000KT 6SM BR SCT006
     FM121400 10004KT P6SM SCT025=

USA.gov is the U.S. government's official web portal to all federal, state and local government web resources and services.